Terminal Aerodrome Forecast
Issued by NWS

Home | Current Version | Previous Version | Text Only | Print | Product List | Glossary On
Versions: 1 2 3 4 5 6 7 8 9 10 11 12 13 14 15 16 17 18 19
000
FTUS43 KGRB 270520
TAFCWA
TAF
KCWA 270520Z 2706/2806 32007KT P6SM OVC005
      TEMPO 2706/2708 5SM -DZ BR
     FM270800 33008KT 5SM -RA BR OVC005
      TEMPO 2710/2714 3SM RA BR OVC003
     FM271400 30009G14KT 3SM -RASN BR OVC007
     FM271900 28012G20KT P6SM OVC012
     FM272200 27011G17KT P6SM OVC020
     FM280200 25008KT P6SM BKN035
      AMD LTD TO CLD VIS AND WIND TIL 271100=

USA.gov is the U.S. government's official web portal to all federal, state and local government web resources and services.